createdAt,value
2019-01-20T00:00:45.710Z,68.31
2019-01-20T00:03:12.917Z,68.11
2019-01-20T00:05:40.155Z,68.26
2019-01-20T00:08:07.403Z,68.25
2019-01-20T00:10:34.637Z,67.58
2019-01-20T00:13:02.314Z,68.14
2019-01-20T00:15:29.622Z,68.17
2019-01-20T00:17:56.861Z,68.03
2019-01-20T00:20:24.177Z,68.00
2019-01-20T00:22:51.414Z,67.98
2019-01-20T00:25:18.684Z,67.71
2019-01-20T00:27:45.957Z,67.97
2019-01-20T00:30:13.512Z,67.88
2019-01-20T00:32:40.735Z,67.88
2019-01-20T00:35:08.068Z,67.77
2019-01-20T00:37:35.297Z,67.80
2019-01-20T00:40:04.133Z,67.75
2019-01-20T00:42:31.380Z,67.63
2019-01-20T00:45:02.958Z,67.41
2019-01-20T00:47:27.741Z,67.48
2019-01-20T00:49:54.951Z,67.54
2019-01-20T00:52:22.161Z,67.55
2019-01-20T00:54:49.415Z,67.55
2019-01-20T00:57:16.646Z,67.56
2019-01-20T00:59:45.520Z,67.48
2019-01-20T01:02:12.770Z,67.49
2019-01-20T01:04:39.998Z,67.38
2019-01-20T01:07:07.307Z,67.45
2019-01-20T01:09:34.604Z,67.51
2019-01-20T01:12:01.912Z,67.53
2019-01-20T01:14:29.149Z,67.45
2019-01-20T01:16:56.348Z,67.44
2019-01-20T01:19:23.559Z,67.45
2019-01-20T01:21:50.792Z,67.42
2019-01-20T01:24:18.024Z,67.39
2019-01-20T01:26:45.288Z,67.44
2019-01-20T01:29:12.777Z,67.47
2019-01-20T01:31:40.016Z,67.41
2019-01-20T01:34:07.227Z,67.38
2019-01-20T01:36:34.564Z,67.38
2019-01-20T01:39:01.760Z,67.36
2019-01-20T01:41:29.102Z,67.37
2019-01-20T01:43:56.415Z,67.31
2019-01-20T01:46:23.588Z,67.29
2019-01-20T01:48:51.156Z,67.29
2019-01-20T01:51:18.401Z,67.17
2019-01-20T01:53:45.631Z,67.14
2019-01-20T01:56:12.822Z,67.07
2019-01-20T01:58:40.073Z,67.10
2019-01-20T02:01:07.413Z,67.05
2019-01-20T02:03:34.614Z,67.06
2019-01-20T02:06:01.880Z,66.99
2019-01-20T02:08:29.096Z,67.07
2019-01-20T02:10:56.336Z,67.04
2019-01-20T02:13:23.586Z,66.98
2019-01-20T02:15:50.873Z,67.11
2019-01-20T02:18:18.079Z,67.11
2019-01-20T02:20:45.316Z,67.13
2019-01-20T02:23:12.728Z,67.19
2019-01-20T02:25:40.077Z,66.94
2019-01-20T02:28:07.525Z,67.27
2019-01-20T02:30:34.746Z,67.30
2019-01-20T02:33:02.130Z,67.58
2019-01-20T02:35:29.410Z,67.66
2019-01-20T02:37:56.638Z,67.62
2019-01-20T02:40:23.855Z,67.44
2019-01-20T02:42:51.062Z,67.83
2019-01-20T02:45:18.397Z,67.76
2019-01-20T02:47:45.600Z,67.71
2019-01-20T02:50:14.607Z,67.81
2019-01-20T02:52:41.851Z,67.92
2019-01-20T02:55:09.266Z,68.05
2019-01-20T02:57:36.490Z,68.07
2019-01-20T03:00:07.331Z,68.01
2019-01-20T03:02:34.536Z,68.04
2019-01-20T03:05:02.074Z,68.00
2019-01-20T03:07:29.335Z,67.91
2019-01-20T03:09:56.546Z,67.93
2019-01-20T03:12:23.772Z,67.96
2019-01-20T03:14:51.012Z,67.92
2019-01-20T03:17:18.239Z,67.90
2019-01-20T03:19:45.504Z,67.88
2019-01-20T03:22:12.751Z,67.86
2019-01-20T03:24:39.945Z,67.89
2019-01-20T03:27:07.231Z,67.88
2019-01-20T03:29:34.469Z,67.89
2019-01-20T03:32:01.698Z,67.87
2019-01-20T03:34:28.908Z,67.89
2019-01-20T03:36:56.198Z,67.94
2019-01-20T03:39:23.433Z,68.00
2019-01-20T03:41:50.672Z,68.02
2019-01-20T03:44:18.034Z,67.97
2019-01-20T03:46:45.235Z,68.00
2019-01-20T03:49:12.447Z,68.01
2019-01-20T03:51:39.702Z,68.07
2019-01-20T03:54:06.917Z,68.00
2019-01-20T03:56:34.216Z,68.04
2019-01-20T03:59:01.497Z,68.04
2019-01-20T04:01:28.837Z,67.98
2019-01-20T04:03:56.091Z,67.95
2019-01-20T04:06:23.363Z,67.93
2019-01-20T04:08:50.588Z,67.89
2019-01-20T04:11:17.811Z,67.89
2019-01-20T04:13:45.080Z,67.89
2019-01-20T04:16:12.312Z,67.90
2019-01-20T04:18:39.571Z,68.00
2019-01-20T04:21:06.819Z,68.09
2019-01-20T04:23:34.051Z,68.22
2019-01-20T04:26:01.382Z,68.30
2019-01-20T04:28:28.642Z,68.32
2019-01-20T04:30:55.841Z,68.50
2019-01-20T04:33:23.079Z,68.52
2019-01-20T04:35:50.300Z,68.49
2019-01-20T04:38:17.579Z,68.47
2019-01-20T04:40:44.786Z,68.39
2019-01-20T04:43:12.000Z,68.36
2019-01-20T04:45:39.247Z,68.34
2019-01-20T04:48:06.548Z,68.67
2019-01-20T04:50:33.798Z,68.81
2019-01-20T04:53:01.011Z,68.90
2019-01-20T04:55:28.216Z,68.84
2019-01-20T04:57:55.578Z,68.81
2019-01-20T05:00:24.557Z,68.86
2019-01-20T05:02:51.787Z,69.00
2019-01-20T05:05:19.263Z,69.14
2019-01-20T05:07:46.781Z,69.50
2019-01-20T05:10:14.552Z,69.65
2019-01-20T05:12:42.002Z,69.65
2019-01-20T05:15:11.337Z,69.74
2019-01-20T05:17:38.607Z,69.83
2019-01-20T05:20:06.139Z,69.89
2019-01-20T05:22:33.435Z,70.02
2019-01-20T05:25:00.881Z,70.02
2019-01-20T05:27:28.173Z,69.93
2019-01-20T05:29:55.437Z,69.90
2019-01-20T05:32:22.667Z,69.87
2019-01-20T05:34:49.927Z,69.77
2019-01-20T05:37:17.181Z,69.55
2019-01-20T05:39:44.409Z,69.52
2019-01-20T05:42:11.625Z,69.37
2019-01-20T05:44:38.894Z,69.31
2019-01-20T05:47:06.080Z,69.28
2019-01-20T05:49:33.415Z,69.09
2019-01-20T05:52:00.670Z,69.07
2019-01-20T05:54:28.013Z,69.09
2019-01-20T05:56:55.225Z,69.09
2019-01-20T05:59:22.570Z,69.08
2019-01-20T06:01:49.836Z,69.01
2019-01-20T06:04:17.038Z,68.99
2019-01-20T06:06:44.258Z,69.05
2019-01-20T06:09:11.702Z,69.03
2019-01-20T06:11:38.943Z,69.10
2019-01-20T06:14:06.151Z,69.04
2019-01-20T06:16:33.381Z,69.16
2019-01-20T06:19:00.632Z,69.11
2019-01-20T06:21:27.914Z,69.37
2019-01-20T06:23:55.133Z,69.48
2019-01-20T06:26:22.419Z,69.88
2019-01-20T06:28:49.664Z,69.94
2019-01-20T06:31:16.901Z,70.61
2019-01-20T06:33:44.180Z,71.09
2019-01-20T06:36:11.388Z,71.25
2019-01-20T06:38:38.746Z,71.06
2019-01-20T06:41:05.946Z,70.90
2019-01-20T06:43:33.195Z,70.64
2019-01-20T06:46:00.444Z,70.53
2019-01-20T06:48:27.661Z,70.26
2019-01-20T06:50:54.895Z,69.94
2019-01-20T06:53:22.135Z,69.98
2019-01-20T06:55:49.644Z,70.11
2019-01-20T06:58:16.913Z,70.24
2019-01-20T07:00:44.119Z,70.19
2019-01-20T07:03:11.354Z,70.20
2019-01-20T07:05:38.597Z,70.08
2019-01-20T07:08:05.915Z,70.20
2019-01-20T07:10:33.241Z,70.14
2019-01-20T07:13:00.502Z,70.08
2019-01-20T07:15:27.703Z,70.02
2019-01-20T07:17:54.927Z,69.78
2019-01-20T07:20:22.256Z,69.84
2019-01-20T07:22:49.691Z,70.13
2019-01-20T07:25:17.108Z,70.33
2019-01-20T07:27:44.623Z,70.69
2019-01-20T07:30:14.792Z,71.70
2019-01-20T07:32:42.083Z,71.88
2019-01-20T07:35:10.043Z,71.75
2019-01-20T07:37:37.236Z,71.68
2019-01-20T07:40:05.721Z,71.67
2019-01-20T07:42:32.964Z,71.62
2019-01-20T07:45:00.259Z,71.57
2019-01-20T07:47:27.502Z,71.43
2019-01-20T07:49:54.719Z,71.34
2019-01-20T07:52:21.935Z,71.28
2019-01-20T07:54:49.139Z,71.21
2019-01-20T07:57:16.377Z,71.40
2019-01-20T07:59:45.847Z,71.38
2019-01-20T08:02:13.093Z,71.81
2019-01-20T08:04:40.302Z,72.32
2019-01-20T08:07:07.539Z,72.85
2019-01-20T08:09:34.769Z,72.95
2019-01-20T08:12:01.986Z,72.98
2019-01-20T08:14:29.247Z,72.84
2019-01-20T08:16:57.515Z,72.83
2019-01-20T08:19:24.749Z,72.88
2019-01-20T08:21:51.977Z,72.84
2019-01-20T08:24:19.256Z,72.88
2019-01-20T08:26:48.024Z,73.28
2019-01-20T08:29:15.500Z,74.35
2019-01-20T08:31:42.815Z,74.54
2019-01-20T08:34:10.052Z,74.89
2019-01-20T08:36:37.251Z,75.15
2019-01-20T08:39:06.522Z,76.13
2019-01-20T08:41:33.754Z,75.80
2019-01-20T08:44:00.970Z,75.95
2019-01-20T08:46:58.846Z,75.96
2019-01-20T08:49:26.099Z,77.39
2019-01-20T08:51:53.326Z,77.30
2019-01-20T08:54:20.533Z,76.92
2019-01-20T08:56:47.739Z,76.15
2019-01-20T08:59:14.979Z,76.16
2019-01-20T09:01:42.197Z,75.49
2019-01-20T09:04:09.713Z,75.02
2019-01-20T09:06:36.921Z,75.36
2019-01-20T09:09:06.692Z,75.93
2019-01-20T09:11:33.963Z,75.41
2019-01-20T09:14:01.415Z,74.94
2019-01-20T09:16:28.682Z,74.93
2019-01-20T09:18:55.885Z,75.21
2019-01-20T09:21:23.087Z,74.60
2019-01-20T09:23:50.329Z,74.32
2019-01-20T09:26:17.609Z,74.10
2019-01-20T09:28:44.956Z,73.97
2019-01-20T09:31:12.198Z,74.33
2019-01-20T09:33:39.718Z,73.93
2019-01-20T09:36:06.948Z,73.72
2019-01-20T09:38:34.177Z,73.62
2019-01-20T09:41:01.418Z,73.59
2019-01-20T09:43:28.721Z,73.68
2019-01-20T09:45:56.081Z,73.77
2019-01-20T09:48:23.557Z,73.75
2019-01-20T09:50:50.827Z,73.81
2019-01-20T09:53:18.080Z,74.12
2019-01-20T09:55:45.319Z,74.73
2019-01-20T09:58:12.538Z,74.21
2019-01-20T10:00:39.774Z,74.70
2019-01-20T10:03:07.023Z,74.80
2019-01-20T10:05:34.242Z,74.71
2019-01-20T10:08:02.765Z,75.08
2019-01-20T10:10:30.014Z,74.78
2019-01-20T10:12:57.444Z,74.18
2019-01-20T10:15:24.777Z,73.98
2019-01-20T10:17:51.990Z,74.38
2019-01-20T10:20:24.596Z,74.40
2019-01-20T10:22:51.849Z,74.04
2019-01-20T10:25:19.192Z,73.63
2019-01-20T10:27:46.844Z,73.52
2019-01-20T10:30:17.567Z,74.16
2019-01-20T10:32:48.024Z,74.38
2019-01-20T10:35:14.840Z,74.07
2019-01-20T10:37:42.314Z,73.71
2019-01-20T10:40:09.523Z,74.09
2019-01-20T10:42:36.743Z,73.47
2019-01-20T10:45:05.267Z,73.11
2019-01-20T10:47:32.462Z,73.58
2019-01-20T10:49:59.711Z,73.16
2019-01-20T10:52:27.122Z,73.37
2019-01-20T10:54:54.360Z,73.00
2019-01-20T10:57:21.590Z,73.24
2019-01-20T10:59:48.843Z,73.02
2019-01-20T11:02:16.046Z,72.88
2019-01-20T11:04:43.271Z,72.70
2019-01-20T11:07:10.533Z,72.36
2019-01-20T11:09:37.777Z,72.23
2019-01-20T11:12:05.083Z,72.71
2019-01-20T11:14:32.319Z,73.14
2019-01-20T11:16:59.548Z,72.55
2019-01-20T11:19:26.905Z,72.33
2019-01-20T11:21:54.103Z,72.09
2019-01-20T11:24:21.350Z,72.14
2019-01-20T11:26:48.782Z,72.34
2019-01-20T11:29:16.067Z,72.08
2019-01-20T11:31:43.277Z,71.87
2019-01-20T11:34:10.521Z,71.74
2019-01-20T11:36:37.717Z,71.31
2019-01-20T11:39:09.376Z,71.23
2019-01-20T11:41:36.640Z,71.25
2019-01-20T11:44:03.870Z,71.10
2019-01-20T11:46:31.096Z,71.28
2019-01-20T11:48:58.347Z,71.71
2019-01-20T11:51:25.561Z,71.64
2019-01-20T11:53:52.771Z,71.63
2019-01-20T11:56:20.031Z,73.28
2019-01-20T11:58:47.239Z,73.05
2019-01-20T12:01:14.512Z,72.71
2019-01-20T12:03:41.734Z,72.63
2019-01-20T12:06:08.969Z,72.51
2019-01-20T12:08:36.201Z,72.75
2019-01-20T12:11:03.404Z,72.69
2019-01-20T12:13:30.825Z,72.64
2019-01-20T12:15:58.067Z,72.66
2019-01-20T12:18:25.287Z,71.87
2019-01-20T12:20:52.501Z,71.96
2019-01-20T12:23:19.746Z,71.91
2019-01-20T12:25:46.989Z,71.75
2019-01-20T12:28:14.303Z,71.92
2019-01-20T12:30:41.571Z,72.18
2019-01-20T12:33:08.914Z,71.93
2019-01-20T12:35:36.273Z,71.69
2019-01-20T12:38:03.802Z,71.82
2019-01-20T12:40:34.054Z,72.08
2019-01-20T12:43:01.227Z,72.39
2019-01-20T12:45:28.483Z,72.42
2019-01-20T12:47:55.680Z,72.55
2019-01-20T12:50:22.922Z,72.98
2019-01-20T12:52:50.176Z,73.38
2019-01-20T12:55:17.474Z,72.48
2019-01-20T12:57:47.128Z,72.29
2019-01-20T13:00:15.735Z,72.50
2019-01-20T13:02:42.957Z,72.26
2019-01-20T13:05:10.442Z,72.73
2019-01-20T13:07:37.662Z,72.50
2019-01-20T13:10:06.877Z,72.00
2019-01-20T13:12:34.151Z,71.84
2019-01-20T13:15:01.373Z,71.68
2019-01-20T13:17:28.621Z,71.57
2019-01-20T13:19:55.831Z,71.54
2019-01-20T13:22:23.058Z,71.42
2019-01-20T13:24:50.307Z,71.24
2019-01-20T13:27:17.531Z,70.86
2019-01-20T13:29:44.848Z,70.57
2019-01-20T13:32:12.056Z,70.17
2019-01-20T13:34:39.269Z,70.14
2019-01-20T13:37:06.515Z,69.95
2019-01-20T13:39:33.762Z,69.95
2019-01-20T13:42:00.971Z,70.22
2019-01-20T13:44:28.317Z,70.08
2019-01-20T13:46:55.567Z,70.12
2019-01-20T13:49:22.778Z,70.09
2019-01-20T13:51:50.024Z,70.31
2019-01-20T13:54:17.224Z,70.26
2019-01-20T13:56:44.489Z,70.18
2019-01-20T13:59:11.703Z,70.77
2019-01-20T14:01:38.917Z,70.87
2019-01-20T14:04:06.178Z,70.96
2019-01-20T14:06:34.311Z,70.49
2019-01-20T14:09:01.527Z,70.37
2019-01-20T14:11:28.797Z,70.26
2019-01-20T14:13:56.027Z,70.22
2019-01-20T14:16:23.245Z,70.24
2019-01-20T14:18:50.494Z,69.95
2019-01-20T14:21:17.717Z,70.36
2019-01-20T14:23:44.969Z,70.38
2019-01-20T14:26:12.243Z,70.23
2019-01-20T14:28:39.503Z,70.23
2019-01-20T14:31:06.788Z,70.13
2019-01-20T14:33:34.025Z,70.06
2019-01-20T14:36:01.233Z,69.98
2019-01-20T14:38:28.497Z,69.89
2019-01-20T14:40:55.703Z,69.85
2019-01-20T14:43:22.907Z,69.74
2019-01-20T14:45:50.165Z,69.65
2019-01-20T14:48:17.360Z,69.53
2019-01-20T14:50:44.590Z,69.49
2019-01-20T14:53:11.879Z,69.37
2019-01-20T14:55:39.088Z,69.30
2019-01-20T14:58:06.339Z,69.39
2019-01-20T15:00:35.208Z,69.36
2019-01-20T15:03:02.502Z,69.26
2019-01-20T15:05:29.976Z,69.18
2019-01-20T15:07:57.587Z,69.05
2019-01-20T15:10:24.899Z,68.80
2019-01-20T15:12:52.145Z,68.76
2019-01-20T15:15:21.931Z,68.76
2019-01-20T15:17:49.155Z,68.66
2019-01-20T15:20:16.401Z,68.62
2019-01-20T15:22:43.675Z,68.58
2019-01-20T15:25:11.930Z,68.62
2019-01-20T15:27:39.156Z,68.66
2019-01-20T15:30:11.514Z,68.66
2019-01-20T15:32:38.770Z,68.67
2019-01-20T15:35:06.197Z,68.66
2019-01-20T15:37:33.449Z,68.67
2019-01-20T15:40:00.674Z,68.66
2019-01-20T15:42:27.929Z,68.62
2019-01-20T15:44:55.404Z,68.53
2019-01-20T15:47:22.667Z,68.38
2019-01-20T15:49:49.942Z,68.50
2019-01-20T15:52:17.173Z,68.59
2019-01-20T15:54:44.413Z,68.55
2019-01-20T15:57:11.712Z,68.59
2019-01-20T15:59:39.226Z,68.64
2019-01-20T16:02:06.432Z,68.58
2019-01-20T16:04:33.688Z,68.68
2019-01-20T16:07:00.933Z,68.78
2019-01-20T16:09:28.158Z,68.69
2019-01-20T16:11:55.447Z,68.79
2019-01-20T16:14:22.957Z,68.75
2019-01-20T16:16:50.254Z,68.68
2019-01-20T16:19:17.742Z,68.56
2019-01-20T16:21:44.957Z,68.51
2019-01-20T16:24:12.212Z,68.56
2019-01-20T16:26:40.030Z,68.54
2019-01-20T16:29:07.286Z,68.65
2019-01-20T16:31:39.780Z,68.64
2019-01-20T16:34:03.720Z,68.68
2019-01-20T16:36:30.980Z,68.61
2019-01-20T16:38:58.201Z,68.62
2019-01-20T16:41:25.426Z,68.98
2019-01-20T16:43:52.616Z,68.99
2019-01-20T16:46:19.910Z,68.99
2019-01-20T16:48:47.156Z,68.85
2019-01-20T16:51:14.370Z,68.92
2019-01-20T16:53:41.589Z,69.00
2019-01-20T16:56:08.904Z,69.06
2019-01-20T16:58:36.153Z,69.39
2019-01-20T17:01:03.432Z,69.49
2019-01-20T17:03:30.685Z,69.52
2019-01-20T17:05:57.950Z,70.06
2019-01-20T17:08:25.171Z,69.88
2019-01-20T17:10:52.529Z,69.62
2019-01-20T17:13:19.780Z,69.19
2019-01-20T17:15:47.134Z,69.39
2019-01-20T17:18:15.076Z,69.17
2019-01-20T17:20:42.410Z,69.13
2019-01-20T17:23:09.777Z,69.28
2019-01-20T17:25:37.003Z,69.21
2019-01-20T17:28:04.482Z,69.15
2019-01-20T17:30:32.254Z,69.05
2019-01-20T17:32:59.757Z,68.92
2019-01-20T17:35:26.993Z,68.85
2019-01-20T17:37:54.268Z,68.82
2019-01-20T17:40:23.143Z,68.78
2019-01-20T17:42:50.386Z,68.65
2019-01-20T17:45:20.484Z,68.77
2019-01-20T17:47:48.113Z,68.80
2019-01-20T17:50:20.828Z,68.78
2019-01-20T17:52:48.926Z,68.84
2019-01-20T17:55:17.574Z,68.82
2019-01-20T17:57:44.949Z,68.95
2019-01-20T18:00:15.745Z,68.97
2019-01-20T18:02:43.072Z,69.08
2019-01-20T18:05:12.481Z,69.17
2019-01-20T18:07:39.748Z,69.08
2019-01-20T18:10:08.967Z,69.24
2019-01-20T18:12:36.220Z,69.87
2019-01-20T18:15:04.604Z,69.89
2019-01-20T18:17:31.869Z,69.35
2019-01-20T18:19:59.188Z,70.28
2019-01-20T18:22:26.654Z,70.35
2019-01-20T18:24:54.193Z,70.21
2019-01-20T18:27:21.403Z,70.15
2019-01-20T18:29:48.658Z,70.06
2019-01-20T18:32:15.917Z,69.94
2019-01-20T18:34:43.191Z,69.63
2019-01-20T18:37:10.514Z,70.03
2019-01-20T18:39:37.779Z,69.95
2019-01-20T18:42:05.001Z,70.37
2019-01-20T18:44:32.408Z,70.23
2019-01-20T18:46:59.632Z,70.03
2019-01-20T18:49:26.850Z,69.85
2019-01-20T18:51:54.099Z,69.43
2019-01-20T18:54:21.317Z,69.67
2019-01-20T18:56:48.551Z,69.67
2019-01-20T18:59:15.937Z,69.68
2019-01-20T19:01:43.154Z,69.54
2019-01-20T19:04:10.388Z,69.46
2019-01-20T19:06:37.628Z,69.44
2019-01-20T19:09:07.115Z,69.39
2019-01-20T19:11:34.344Z,69.41
2019-01-20T19:14:01.550Z,69.32
2019-01-20T19:16:28.828Z,69.20
2019-01-20T19:18:56.061Z,69.36
2019-01-20T19:21:23.361Z,69.38
2019-01-20T19:23:50.619Z,69.43
2019-01-20T19:26:17.833Z,69.37
2019-01-20T19:28:45.047Z,69.42
2019-01-20T19:31:12.339Z,69.39
2019-01-20T19:33:39.646Z,69.35
2019-01-20T19:36:08.204Z,69.33
2019-01-20T19:38:35.455Z,69.33
2019-01-20T19:41:02.689Z,69.33
2019-01-20T19:43:29.945Z,69.28
2019-01-20T19:45:57.275Z,69.19
2019-01-20T19:48:24.496Z,69.20
2019-01-20T19:50:51.797Z,69.16
2019-01-20T19:53:19.020Z,69.13
2019-01-20T19:55:46.286Z,69.13
2019-01-20T19:58:13.554Z,69.11
2019-01-20T20:00:40.805Z,69.08
2019-01-20T20:03:08.048Z,69.10
2019-01-20T20:05:35.275Z,69.10
2019-01-20T20:08:02.893Z,69.06
2019-01-20T20:10:30.128Z,69.02
2019-01-20T20:12:57.808Z,68.98
2019-01-20T20:15:25.594Z,68.93
2019-01-20T20:17:53.042Z,68.91
2019-01-20T20:20:20.584Z,68.93
2019-01-20T20:22:48.180Z,68.91
2019-01-20T20:25:16.440Z,68.89
2019-01-20T20:27:43.784Z,68.88
2019-01-20T20:30:14.169Z,68.78
2019-01-20T20:32:41.475Z,68.76
2019-01-20T20:35:08.856Z,68.72
2019-01-20T20:37:36.156Z,68.65
2019-01-20T20:40:04.839Z,68.55
2019-01-20T20:42:32.226Z,68.45
2019-01-20T20:44:59.439Z,68.40
2019-01-20T20:47:26.708Z,68.36
2019-01-20T20:49:53.931Z,68.33
2019-01-20T20:52:21.665Z,68.14
2019-01-20T20:54:48.907Z,68.18
2019-01-20T20:57:16.170Z,68.18
2019-01-20T20:59:43.551Z,68.08
2019-01-20T21:02:10.868Z,67.88
2019-01-20T21:04:38.119Z,67.82
2019-01-20T21:07:05.333Z,67.85
2019-01-20T21:09:33.903Z,67.77
2019-01-20T21:12:01.139Z,67.72
2019-01-20T21:14:28.516Z,67.64
2019-01-20T21:16:55.777Z,67.69
2019-01-20T21:19:23.013Z,67.71
2019-01-20T21:21:52.437Z,67.74
2019-01-20T21:24:19.669Z,67.57
2019-01-20T21:26:46.954Z,67.50
2019-01-20T21:29:14.190Z,67.51
2019-01-20T21:31:41.619Z,67.45
2019-01-20T21:34:08.892Z,67.45
2019-01-20T21:36:36.107Z,67.40
2019-01-20T21:39:06.367Z,67.33
2019-01-20T21:41:33.617Z,67.40
2019-01-20T21:44:00.860Z,67.48
2019-01-20T21:46:28.142Z,67.44
2019-01-20T21:48:55.423Z,67.45
2019-01-20T21:51:22.686Z,67.46
2019-01-20T21:53:49.897Z,67.44
2019-01-20T21:56:17.235Z,67.41
2019-01-20T21:58:44.540Z,67.42
2019-01-20T22:01:11.780Z,67.30
2019-01-20T22:03:39.024Z,67.30
2019-01-20T22:06:09.148Z,67.12
2019-01-20T22:08:37.431Z,67.21
2019-01-20T22:11:04.683Z,67.23
2019-01-20T22:13:32.028Z,67.22
2019-01-20T22:15:59.314Z,67.08
2019-01-20T22:18:26.547Z,67.13
2019-01-20T22:20:53.896Z,67.14
2019-01-20T22:23:21.174Z,67.18
2019-01-20T22:25:48.398Z,67.21
2019-01-20T22:28:15.691Z,67.18
2019-01-20T22:30:42.945Z,67.13
2019-01-20T22:33:10.344Z,67.04
2019-01-20T22:35:37.613Z,67.04
2019-01-20T22:38:04.831Z,67.04
2019-01-20T22:40:32.098Z,67.02
2019-01-20T22:42:59.331Z,67.00
2019-01-20T22:45:27.102Z,66.99
2019-01-20T22:47:54.493Z,67.01
2019-01-20T22:50:21.965Z,66.90
2019-01-20T22:52:49.157Z,66.86
2019-01-20T22:55:16.562Z,66.79
2019-01-20T22:57:44.153Z,66.93
2019-01-20T23:00:23.305Z,66.95
2019-01-20T23:02:50.623Z,67.01
2019-01-20T23:05:17.832Z,66.85
2019-01-20T23:07:45.078Z,66.85
2019-01-20T23:10:12.287Z,66.82
2019-01-20T23:12:39.541Z,66.82
2019-01-20T23:15:07.614Z,66.78
2019-01-20T23:17:34.807Z,66.74
2019-01-20T23:20:02.044Z,66.73
2019-01-20T23:22:29.272Z,66.77
2019-01-20T23:24:56.527Z,66.82
2019-01-20T23:27:23.819Z,66.79
2019-01-20T23:29:51.043Z,66.76
2019-01-20T23:32:18.271Z,66.84
2019-01-20T23:34:45.477Z,66.90
2019-01-20T23:37:12.683Z,66.87
2019-01-20T23:39:39.968Z,66.87
2019-01-20T23:42:07.184Z,66.88
2019-01-20T23:44:34.442Z,66.95
2019-01-20T23:47:01.693Z,66.87
2019-01-20T23:49:28.913Z,66.90
2019-01-20T23:51:56.180Z,66.91
2019-01-20T23:54:23.460Z,66.87
2019-01-20T23:56:50.652Z,66.92
2019-01-20T23:59:17.870Z,66.93
